Soap Lake, Washington
Current Conditions -  °F | °C
As of 1:53 PM on Monday 20 Oct 2014 (Local Time) from KEPH Reporting Station
Overcast Overcast  
Wind Chill: 63°   Ceiling: 7000
Heat Index: 63°   Visibility: 10mi
Dew Point: 50°   Wind: 5mph
Humidity: 63%   Direction: 170°S
Pressure: 29.72"   Gusts: NA
Location:  47.39°N, 119.49°W
Report Text: KEPH 202053Z AUTO 17004KT 10SM BKN070 OVC090 17/10 A2972 RMK AO2 SLP064 T01720100 58006
Loading
Personal Weather Stations






























Interactive Weather Map
Tropical Storm Tracking
New forecast layout! Learn more

10-Day Weather Forecast

Advertisements
Track Severe Weather on mobile